createdAt,value
2018-07-24T00:02:22.627Z,101617.28
2018-07-24T00:04:58.436Z,101610.28
2018-07-24T00:07:34.841Z,101607.11
2018-07-24T00:10:11.129Z,101607.81
2018-07-24T00:12:40.130Z,101607.70
2018-07-24T00:15:08.950Z,101607.08
2018-07-24T00:17:37.810Z,101605.52
2018-07-24T00:20:08.323Z,101600.34
2018-07-24T00:22:42.130Z,101603.09
2018-07-24T00:25:23.827Z,101599.34
2018-07-24T00:27:59.003Z,101599.95
2018-07-24T00:30:27.826Z,101600.56
2018-07-24T00:32:56.605Z,101595.73
2018-07-24T00:35:25.405Z,101589.25
2018-07-24T00:37:56.050Z,101588.41
2018-07-24T00:40:28.284Z,101594.64
2018-07-24T00:42:59.956Z,101585.51
2018-07-24T00:45:35.396Z,101586.08
2018-07-24T00:48:07.754Z,101585.02
2018-07-24T00:50:36.554Z,101579.82
2018-07-24T00:53:05.377Z,101581.61
2018-07-24T00:55:34.214Z,101581.02
2018-07-24T00:58:03.847Z,101574.73
2018-07-24T01:00:38.193Z,101580.25
2018-07-24T01:03:10.440Z,101575.19
2018-07-24T01:05:47.000Z,101573.14
2018-07-24T01:08:15.859Z,101567.73
2018-07-24T01:10:44.789Z,101567.11
2018-07-24T01:13:13.609Z,101567.45
2018-07-24T01:15:42.636Z,101568.53
2018-07-24T01:18:20.139Z,101571.17
2018-07-24T01:20:55.100Z,101565.25
2018-07-24T01:23:28.019Z,101563.55
2018-07-24T01:25:57.864Z,101563.46
2018-07-24T01:28:26.718Z,101563.46
2018-07-24T01:30:55.529Z,101563.55
2018-07-24T01:36:23.895Z,101558.64
2018-07-24T01:38:57.958Z,101559.02
2018-07-24T01:41:32.119Z,101558.42
2018-07-24T01:44:01.010Z,101553.48
2018-07-24T01:46:29.869Z,101552.06
2018-07-24T01:48:58.711Z,101547.62
2018-07-24T01:51:28.147Z,101550.61
2018-07-24T01:53:59.983Z,101551.36
2018-07-24T01:56:35.579Z,101553.88
2018-07-24T01:59:11.293Z,101552.42
2018-07-24T02:01:40.162Z,101548.84
2018-07-24T02:04:08.969Z,101552.20
2018-07-24T02:06:37.798Z,101547.66
2018-07-24T02:09:09.483Z,101548.39
2018-07-24T02:11:46.145Z,101549.95
2018-07-24T02:14:20.111Z,101545.52
2018-07-24T02:16:59.564Z,101550.42
2018-07-24T02:19:28.463Z,101553.20
2018-07-24T02:21:57.362Z,101557.64
2018-07-24T02:24:26.222Z,101556.32
2018-07-24T02:26:55.953Z,101554.02
2018-07-24T02:29:27.666Z,101554.40
2018-07-24T02:31:59.869Z,101556.57
2018-07-24T02:34:38.548Z,101556.57
2018-07-24T02:37:11.402Z,101554.77
2018-07-24T02:39:41.152Z,101554.17
2018-07-24T02:42:10.043Z,101555.36
2018-07-24T02:44:38.995Z,101557.06
2018-07-24T02:47:12.130Z,101551.64
2018-07-24T02:49:47.207Z,101551.64
2018-07-24T02:52:23.183Z,101556.59
2018-07-24T02:54:57.939Z,101554.55
2018-07-24T02:57:26.779Z,101557.06
2018-07-24T02:59:55.542Z,101553.09
2018-07-24T03:02:24.330Z,101554.80
2018-07-24T03:04:53.587Z,101561.28
2018-07-24T03:07:31.840Z,101561.88
2018-07-24T03:10:03.249Z,101559.58
2018-07-24T03:12:37.456Z,101561.41
2018-07-24T03:15:06.298Z,101559.58
2018-07-24T03:17:35.087Z,101567.52
2018-07-24T03:20:03.910Z,101563.55
2018-07-24T03:22:33.160Z,101563.67
2018-07-24T03:25:07.108Z,101561.03
2018-07-24T03:27:42.287Z,101557.19
2018-07-24T03:32:48.259Z,101564.28
2018-07-24T03:35:17.074Z,101563.56
2018-07-24T03:37:45.866Z,101562.71
2018-07-24T03:40:14.967Z,101557.64
2018-07-24T03:42:51.293Z,101557.02
2018-07-24T03:45:26.453Z,101556.77
2018-07-24T03:47:59.193Z,101559.04
2018-07-24T03:50:27.967Z,101557.00
2018-07-24T03:52:56.860Z,101555.67
2018-07-24T03:55:25.662Z,101556.66
2018-07-24T03:57:54.655Z,101554.58
2018-07-24T04:00:27.423Z,101548.81
2018-07-24T04:02:59.854Z,101548.56
2018-07-24T04:05:35.577Z,101543.27
2018-07-24T04:08:07.644Z,101549.03
2018-07-24T04:10:36.516Z,101543.75
2018-07-24T04:13:05.394Z,101545.92
2018-07-24T04:15:35.470Z,101538.11
2018-07-24T04:18:10.382Z,101541.23
2018-07-24T04:20:42.802Z,101541.83
2018-07-24T04:23:18.499Z,101545.42
2018-07-24T04:25:47.309Z,101546.84
2018-07-24T04:28:16.150Z,101541.81
2018-07-24T04:30:44.988Z,101548.42
2018-07-24T04:33:14.195Z,101548.89
2018-07-24T04:35:47.064Z,101549.83
2018-07-24T04:38:20.283Z,101549.83
2018-07-24T04:40:51.831Z,101548.14
2018-07-24T04:43:20.650Z,101545.14
2018-07-24T04:45:49.555Z,101545.37
2018-07-24T04:48:18.418Z,101539.36
2018-07-24T04:50:47.527Z,101540.69
2018-07-24T04:53:30.924Z,101541.63
2018-07-24T04:56:07.416Z,101544.17
2018-07-24T04:58:39.927Z,101547.16
2018-07-24T05:01:08.722Z,101547.54
2018-07-24T05:03:39.461Z,101551.03
2018-07-24T05:06:08.278Z,101554.49
2018-07-24T05:08:38.096Z,101551.03
2018-07-24T05:11:10.492Z,101551.03
2018-07-24T05:13:46.812Z,101555.72
2018-07-24T05:16:19.537Z,101554.41
2018-07-24T05:18:48.338Z,101559.22
2018-07-24T05:21:17.309Z,101562.34
2018-07-24T05:23:46.219Z,101560.03
2018-07-24T05:35:23.943Z,101568.72
2018-07-24T05:37:52.947Z,101571.62
2018-07-24T05:40:22.094Z,101575.45
2018-07-24T05:51:59.363Z,101579.70
2018-07-24T05:54:28.323Z,101578.38
2018-07-24T05:56:57.340Z,101581.78
2018-07-24T06:11:09.073Z,101583.63
2018-07-24T06:13:38.496Z,101586.86
2018-07-24T06:25:30.139Z,101598.72
2018-07-24T06:27:59.138Z,101592.34
2018-07-24T06:30:28.539Z,101591.99
2018-07-24T06:44:54.153Z,101589.04
2018-07-24T06:47:23.206Z,101591.59
2018-07-24T06:49:52.690Z,101592.30
2018-07-24T07:01:30.456Z,101587.95
2018-07-24T07:03:59.592Z,101589.19
2018-07-24T07:06:28.919Z,101590.84
2018-07-24T07:18:05.697Z,101587.53
2018-07-24T07:20:35.606Z,101588.86
2018-07-24T07:23:05.707Z,101593.55
2018-07-24T07:34:45.303Z,101591.81
2018-07-24T07:37:17.303Z,101596.13
2018-07-24T07:39:46.590Z,101589.78
2018-07-24T07:54:28.472Z,101593.67
2018-07-24T07:56:59.573Z,101587.55
2018-07-24T08:08:56.183Z,101578.44
2018-07-24T08:11:27.951Z,101581.67
2018-07-24T08:14:34.373Z,101578.66
2018-07-24T08:26:20.020Z,101573.59
2018-07-24T09:02:16.398Z,101591.55
2018-07-24T09:04:45.569Z,101591.80
2018-07-24T09:07:15.115Z,101602.16
2018-07-24T09:18:52.996Z,101607.70
2018-07-24T09:21:22.095Z,101602.39
2018-07-24T09:23:51.170Z,101600.97
2018-07-24T09:35:29.168Z,101614.09
2018-07-24T09:37:58.502Z,101611.92
2018-07-24T09:40:27.763Z,101616.84
2018-07-24T09:52:04.910Z,101617.23
2018-07-24T09:54:34.092Z,101619.74
2018-07-24T09:57:03.131Z,101618.66
2018-07-24T10:08:41.470Z,101632.86
2018-07-24T10:11:10.598Z,101631.44
2018-07-24T10:13:39.661Z,101627.45
2018-07-24T10:25:29.126Z,101625.11
2018-07-24T10:27:58.176Z,101624.52
2018-07-24T10:30:27.575Z,101626.14
2018-07-24T10:44:59.335Z,101632.21
2018-07-24T10:47:28.878Z,101628.70
2018-07-24T11:02:07.431Z,101627.17
2018-07-24T11:04:36.553Z,101627.52
2018-07-24T11:19:09.571Z,101637.52
2018-07-24T11:21:38.698Z,101642.68
2018-07-24T11:24:08.013Z,101644.67
2018-07-24T11:35:46.646Z,101663.34
2018-07-24T11:38:15.627Z,101664.96
2018-07-24T11:40:45.036Z,101669.14
2018-07-24T11:52:22.895Z,101669.59
2018-07-24T11:54:52.159Z,101670.57
2018-07-24T11:57:21.418Z,101661.70
2018-07-24T12:09:00.112Z,101663.23
2018-07-24T12:11:29.421Z,101663.02
2018-07-24T12:13:58.554Z,101660.70
2018-07-24T12:25:36.199Z,101660.14
2018-07-24T12:28:05.132Z,101654.78
2018-07-24T12:30:34.141Z,101654.75
2018-07-24T12:42:20.382Z,101642.30
2018-07-24T12:44:49.403Z,101644.33
2018-07-24T12:47:19.392Z,101653.39
2018-07-24T12:49:48.801Z,101655.16
2018-07-24T13:01:26.455Z,101647.33
2018-07-24T13:03:55.356Z,101648.80
2018-07-24T13:06:25.310Z,101650.68
2018-07-24T13:18:15.782Z,101652.80
2018-07-24T13:20:44.824Z,101656.00
2018-07-24T13:23:13.995Z,101655.73
2018-07-24T13:34:50.769Z,101664.13
2018-07-24T13:37:19.837Z,101663.71
2018-07-24T13:39:54.197Z,101663.87
2018-07-24T13:51:32.610Z,101666.14
2018-07-24T13:54:01.548Z,101661.03
2018-07-24T13:56:30.496Z,101657.58
2018-07-24T14:08:07.060Z,101654.42
2018-07-24T14:10:36.130Z,101649.77
2018-07-24T14:13:05.155Z,101651.33
2018-07-24T14:25:06.362Z,101640.91
2018-07-24T14:44:14.676Z,101648.84
2018-07-24T14:46:57.343Z,101644.09
2018-07-24T14:49:26.504Z,101643.59
2018-07-24T15:01:02.985Z,101639.22
2018-07-24T15:03:32.100Z,101633.50
2018-07-24T15:06:01.359Z,101630.80
2018-07-24T15:17:40.022Z,101632.33
2018-07-24T15:20:09.120Z,101623.38
2018-07-24T15:22:38.524Z,101628.92
2018-07-24T15:37:36.893Z,101634.93
2018-07-24T16:32:13.939Z,101658.39
2018-07-24T17:57:01.755Z,101666.33
2018-07-24T17:59:31.990Z,101667.14
2018-07-24T18:13:55.281Z,101681.63
2018-07-24T18:16:25.977Z,101690.03
2018-07-24T18:18:55.276Z,101687.19
2018-07-24T18:30:34.027Z,101682.13
2018-07-24T18:33:03.477Z,101683.47
2018-07-24T18:35:32.892Z,101676.29
2018-07-24T18:50:13.751Z,101683.39
2018-07-24T18:52:42.878Z,101692.73
2018-07-24T18:55:12.158Z,101696.75
2018-07-24T19:06:49.961Z,101702.98
2018-07-24T19:09:19.464Z,101701.30
2018-07-24T19:11:48.671Z,101708.36
2018-07-24T19:23:44.868Z,101708.50
2018-07-24T19:26:14.262Z,101703.73
2018-07-24T19:28:43.677Z,101708.84
2018-07-24T19:46:07.640Z,101736.51
2018-07-24T19:48:36.900Z,101726.89
2018-07-24T19:51:06.758Z,101731.66
2018-07-24T20:03:01.914Z,101734.33
2018-07-24T20:05:32.108Z,101738.30
2018-07-24T20:08:01.370Z,101741.58
2018-07-24T20:10:31.710Z,101741.97
2018-07-24T20:22:09.275Z,101752.47
2018-07-24T20:24:38.589Z,101761.98
2018-07-24T20:27:07.852Z,101769.98
2018-07-24T20:39:01.609Z,101768.48
2018-07-24T20:41:30.936Z,101776.54
2018-07-24T20:44:00.075Z,101770.97
2018-07-24T20:46:35.668Z,101770.95
2018-07-24T20:58:13.075Z,101777.76
2018-07-24T21:00:42.451Z,101776.02
2018-07-24T21:03:11.819Z,101776.59
2018-07-24T21:14:49.456Z,101775.89
2018-07-24T21:17:18.823Z,101781.34
2018-07-24T21:19:48.221Z,101776.70
2018-07-24T21:31:25.269Z,101783.38
2018-07-24T21:33:54.560Z,101781.80
2018-07-24T21:36:23.797Z,101779.37
2018-07-24T21:48:00.686Z,101791.64
2018-07-24T21:50:29.714Z,101793.50
2018-07-24T21:52:58.857Z,101801.83
2018-07-24T21:55:28.503Z,101800.48
2018-07-24T22:07:05.794Z,101798.11
2018-07-24T22:09:34.694Z,101800.84
2018-07-24T22:12:04.663Z,101795.80
2018-07-24T22:23:41.516Z,101807.80
2018-07-24T22:26:10.404Z,101812.80
2018-07-24T22:28:39.694Z,101806.78
2018-07-24T22:40:16.514Z,101805.52
2018-07-24T22:42:45.438Z,101810.97
2018-07-24T22:45:14.288Z,101808.98
2018-07-24T22:47:43.415Z,101808.88
2018-07-24T22:50:19.621Z,101812.83
2018-07-24T22:52:51.641Z,101811.90
2018-07-24T22:55:23.731Z,101817.53
2018-07-24T22:57:52.510Z,101814.42
2018-07-24T23:00:21.353Z,101819.98
2018-07-24T23:02:50.248Z,101819.70
2018-07-24T23:05:19.608Z,101819.23
2018-07-24T23:07:52.160Z,101819.81
2018-07-24T23:10:42.502Z,101821.33
2018-07-24T23:13:19.655Z,101823.22
2018-07-24T23:15:49.530Z,101824.73
2018-07-24T23:18:18.494Z,101831.44
2018-07-24T23:20:48.352Z,101823.98
2018-07-24T23:23:18.720Z,101831.05
2018-07-24T23:25:50.692Z,101833.41
2018-07-24T23:28:21.405Z,101830.95
2018-07-24T23:30:52.592Z,101826.45
2018-07-24T23:33:27.094Z,101820.05
2018-07-24T23:35:56.022Z,101817.59
2018-07-24T23:38:25.469Z,101820.80
2018-07-24T23:40:54.382Z,101821.27
2018-07-24T23:43:26.640Z,101815.36
2018-07-24T23:46:00.336Z,101819.11
2018-07-24T23:48:32.000Z,101820.16
2018-07-24T23:51:04.052Z,101808.94
2018-07-24T23:53:32.971Z,101818.00
2018-07-24T23:56:01.862Z,101817.61
2018-07-24T23:58:31.042Z,101824.38
